createdAt,value
2023-03-20T00:00:19.964Z,30.40
2023-03-20T00:02:55.016Z,30.63
2023-03-20T00:05:31.653Z,30.70
2023-03-20T00:08:06.515Z,33.10
2023-03-20T00:10:43.928Z,31.15
2023-03-20T00:13:22.939Z,30.52
2023-03-20T00:16:05.937Z,32.70
2023-03-20T00:18:42.446Z,32.22
2023-03-20T00:21:19.766Z,32.38
2023-03-20T00:23:55.686Z,32.35
2023-03-20T00:26:35.268Z,28.98
2023-03-20T00:29:12.325Z,30.40
2023-03-20T00:31:52.068Z,30.23
2023-03-20T00:34:32.180Z,34.57
2023-03-20T00:37:13.190Z,33.50
2023-03-20T00:39:51.267Z,33.30
2023-03-20T00:42:26.392Z,33.00
2023-03-20T00:45:02.680Z,31.45
2023-03-20T00:47:45.930Z,31.75
2023-03-20T00:50:27.800Z,30.42
2023-03-20T00:53:05.346Z,28.27
2023-03-20T00:55:41.161Z,32.47
2023-03-20T00:58:19.517Z,31.13
2023-03-20T01:00:54.052Z,30.05
2023-03-20T01:03:36.925Z,32.30
2023-03-20T01:06:12.025Z,32.75
2023-03-20T01:08:49.278Z,33.35
2023-03-20T01:11:28.018Z,30.35
2023-03-20T01:14:04.654Z,27.20
2023-03-20T01:16:43.658Z,32.17
2023-03-20T01:19:24.331Z,28.73
2023-03-20T01:22:02.929Z,30.38
2023-03-20T01:24:40.690Z,28.30
2023-03-20T01:27:16.569Z,29.50
2023-03-20T01:29:53.495Z,27.70
2023-03-20T01:32:32.094Z,28.27
2023-03-20T01:35:16.784Z,27.70
2023-03-20T01:37:52.550Z,27.58
2023-03-20T01:40:34.527Z,27.13
2023-03-20T01:43:12.822Z,25.13
2023-03-20T01:45:54.260Z,25.67
2023-03-20T01:48:35.086Z,26.67
2023-03-20T01:51:17.107Z,25.45
2023-03-20T01:53:54.640Z,25.93
2023-03-20T01:56:31.325Z,25.65
2023-03-20T01:59:12.200Z,24.95
2023-03-20T02:01:50.005Z,23.08
2023-03-20T02:04:27.733Z,24.63
2023-03-20T02:07:14.682Z,24.95
2023-03-20T02:10:16.166Z,25.20
2023-03-20T02:13:15.046Z,25.95
2023-03-20T02:16:01.450Z,26.80
2023-03-20T02:18:57.424Z,26.60
2023-03-20T02:21:56.923Z,26.83
2023-03-20T02:25:17.371Z,27.48
2023-03-20T02:28:10.954Z,27.33
2023-03-20T02:31:06.820Z,29.90
2023-03-20T02:34:07.047Z,32.97
2023-03-20T02:36:55.517Z,29.63
2023-03-20T02:40:01.371Z,34.33
2023-03-20T02:42:38.744Z,33.30
2023-03-20T02:45:18.728Z,31.40
2023-03-20T02:47:59.037Z,32.20
2023-03-20T02:50:37.694Z,33.70
2023-03-20T02:53:20.099Z,31.65
2023-03-20T02:56:00.326Z,32.70
2023-03-20T02:58:37.016Z,32.80
2023-03-20T03:01:15.239Z,26.10
2023-03-20T03:03:52.980Z,31.40
2023-03-20T03:06:31.844Z,31.55
2023-03-20T03:09:10.063Z,32.25
2023-03-20T03:11:52.134Z,30.50
2023-03-20T03:14:36.600Z,27.80
2023-03-20T03:17:16.865Z,26.83
2023-03-20T03:19:55.113Z,27.40
2023-03-20T03:22:32.419Z,21.75
2023-03-20T03:25:09.481Z,27.95
2023-03-20T03:27:49.346Z,21.20
2023-03-20T03:30:28.272Z,27.85
2023-03-20T03:33:13.426Z,21.30
2023-03-20T03:35:49.557Z,22.60
2023-03-20T03:41:10.910Z,23.65
2023-03-20T03:43:54.602Z,25.10
2023-03-20T03:46:34.558Z,26.10
2023-03-20T03:49:16.164Z,27.88
2023-03-20T03:51:52.911Z,28.67
2023-03-20T03:54:30.868Z,21.73
2023-03-20T03:57:37.858Z,24.45
2023-03-20T04:00:22.360Z,29.20
2023-03-20T04:02:58.451Z,25.80
2023-03-20T04:05:37.681Z,22.83
2023-03-20T04:08:16.780Z,24.55
2023-03-20T04:10:53.652Z,29.58
2023-03-20T04:16:10.670Z,27.45
2023-03-20T04:18:47.534Z,25.35
2023-03-20T04:21:25.033Z,23.30
2023-03-20T04:24:00.637Z,26.70
2023-03-20T04:26:41.371Z,30.50
2023-03-20T04:29:18.659Z,25.73
2023-03-20T04:32:07.459Z,25.23
2023-03-20T04:35:00.453Z,24.10
2023-03-20T04:38:10.948Z,24.95
2023-03-20T04:40:47.716Z,26.00
2023-03-20T04:43:23.591Z,31.33
2023-03-20T04:46:00.748Z,27.33
2023-03-20T04:48:36.881Z,28.53
2023-03-20T04:51:16.128Z,22.60
2023-03-20T04:53:58.717Z,29.27
2023-03-20T04:56:34.023Z,25.27
2023-03-20T04:59:43.180Z,22.42
2023-03-20T05:02:19.348Z,25.45
2023-03-20T05:04:57.369Z,23.10
2023-03-20T05:07:39.411Z,30.63
2023-03-20T05:10:17.768Z,22.70
2023-03-20T05:13:01.574Z,28.57
2023-03-20T05:15:48.200Z,25.05
2023-03-20T05:18:57.595Z,21.60
2023-03-20T05:21:53.603Z,24.65
2023-03-20T05:25:07.343Z,19.85
2023-03-20T05:28:04.049Z,22.13
2023-03-20T05:30:50.690Z,22.38
2023-03-20T05:33:46.068Z,23.47
2023-03-20T05:36:27.678Z,25.73
2023-03-20T05:39:25.983Z,25.40
2023-03-20T05:42:17.379Z,27.00
2023-03-20T05:45:15.514Z,19.48
2023-03-20T05:48:15.329Z,22.50
2023-03-20T05:51:18.241Z,23.48
2023-03-20T05:54:37.010Z,21.67
2023-03-20T05:57:36.517Z,21.95
2023-03-20T06:00:59.147Z,25.73
2023-03-20T06:04:09.516Z,22.38
2023-03-20T06:07:10.861Z,22.55
2023-03-20T06:09:50.679Z,24.17
2023-03-20T06:12:31.570Z,21.38
2023-03-20T06:15:17.540Z,22.40
2023-03-20T06:18:10.270Z,22.77
2023-03-20T06:20:47.875Z,23.80
2023-03-20T06:23:24.701Z,21.38
2023-03-20T06:26:01.113Z,23.55
2023-03-20T06:28:36.633Z,23.10
2023-03-20T06:31:18.698Z,23.00
2023-03-20T06:33:54.860Z,22.00
2023-03-20T06:36:33.287Z,24.23
2023-03-20T06:39:13.558Z,22.37
2023-03-20T06:41:51.622Z,25.70
2023-03-20T06:44:34.625Z,23.63
2023-03-20T06:47:42.436Z,25.30
2023-03-20T06:50:18.795Z,23.20
2023-03-20T06:52:58.770Z,24.45
2023-03-20T06:55:54.999Z,19.45
2023-03-20T06:58:34.812Z,22.60
2023-03-20T07:01:19.214Z,26.05
2023-03-20T07:03:59.283Z,25.02
2023-03-20T07:06:47.440Z,28.02
2023-03-20T07:09:31.741Z,15.70
2023-03-20T07:12:10.866Z,24.27
2023-03-20T07:14:49.801Z,24.50
2023-03-20T07:17:29.030Z,21.63
2023-03-20T07:20:10.720Z,26.70
2023-03-20T07:22:47.265Z,20.57
2023-03-20T07:25:41.754Z,26.35
2023-03-20T07:28:21.160Z,26.05
2023-03-20T07:31:16.951Z,25.42
2023-03-20T07:33:59.006Z,25.77
2023-03-20T07:36:40.630Z,26.30
2023-03-20T07:39:25.077Z,24.10
2023-03-20T07:42:27.763Z,24.05
2023-03-20T07:45:14.347Z,25.63
2023-03-20T07:48:00.812Z,24.03
2023-03-20T07:50:41.551Z,22.45
2023-03-20T07:53:26.128Z,19.55
2023-03-20T07:56:05.353Z,20.95
2023-03-20T07:58:55.154Z,24.15
2023-03-20T08:01:37.017Z,22.25
2023-03-20T08:04:15.207Z,23.95
2023-03-20T08:06:50.785Z,22.80
2023-03-20T08:09:29.950Z,23.93
2023-03-20T08:12:09.860Z,21.48
2023-03-20T08:14:48.846Z,21.67
2023-03-20T08:17:26.481Z,22.25
2023-03-20T08:20:06.647Z,21.43
2023-03-20T08:22:52.058Z,22.58
2023-03-20T08:25:35.395Z,25.45
2023-03-20T08:28:13.330Z,24.02
2023-03-20T08:30:55.997Z,23.42
2023-03-20T08:33:35.276Z,25.02
2023-03-20T08:36:20.054Z,25.05
2023-03-20T08:38:55.158Z,20.70
2023-03-20T08:41:36.703Z,24.40
2023-03-20T08:44:13.091Z,22.70
2023-03-20T08:46:47.904Z,24.15
2023-03-20T08:49:24.897Z,25.38
2023-03-20T08:52:02.016Z,22.98
2023-03-20T08:54:53.299Z,22.30
2023-03-20T08:57:34.604Z,21.73
2023-03-20T09:00:16.229Z,22.30
2023-03-20T09:02:57.702Z,19.63
2023-03-20T09:05:34.369Z,20.37
2023-03-20T09:08:12.612Z,19.77
2023-03-20T09:10:52.082Z,20.38
2023-03-20T09:13:33.909Z,21.55
2023-03-20T09:16:12.592Z,25.42
2023-03-20T09:18:51.441Z,37.85
2023-03-20T09:21:29.824Z,23.88
2023-03-20T09:24:04.020Z,18.55
2023-03-20T09:26:41.176Z,19.10
2023-03-20T09:29:19.162Z,18.45
2023-03-20T09:31:57.026Z,19.70
2023-03-20T09:34:38.322Z,18.10
2023-03-20T09:37:15.272Z,18.17
2023-03-20T09:39:52.062Z,17.25
2023-03-20T09:42:40.483Z,18.55
2023-03-20T09:45:21.298Z,18.63
2023-03-20T09:48:02.503Z,17.92
2023-03-20T09:50:42.077Z,18.10
2023-03-20T09:53:20.456Z,17.87
2023-03-20T09:56:00.404Z,16.67
2023-03-20T09:58:39.238Z,17.45
2023-03-20T10:01:19.658Z,17.70
2023-03-20T10:04:04.264Z,14.98
2023-03-20T10:06:49.088Z,13.25
2023-03-20T10:09:26.094Z,13.67
2023-03-20T10:12:08.717Z,13.93
2023-03-20T10:14:51.254Z,12.85
2023-03-20T10:17:43.401Z,12.55
2023-03-20T10:20:27.115Z,12.55
2023-03-20T10:23:07.746Z,12.73
2023-03-20T10:25:52.765Z,12.27
2023-03-20T10:28:29.984Z,13.25
2023-03-20T10:31:13.275Z,12.23
2023-03-20T10:33:56.332Z,12.23
2023-03-20T10:36:34.740Z,11.43
2023-03-20T10:39:12.573Z,12.40
2023-03-20T10:41:53.175Z,11.70
2023-03-20T10:44:33.192Z,10.45
2023-03-20T10:47:11.934Z,9.97
2023-03-20T10:49:53.241Z,9.90
2023-03-20T10:52:34.685Z,9.37
2023-03-20T10:55:12.482Z,8.95
2023-03-20T10:58:00.249Z,8.60
2023-03-20T11:00:38.242Z,9.07
2023-03-20T11:03:20.892Z,8.73
2023-03-20T11:06:09.985Z,8.95
2023-03-20T11:08:57.859Z,8.65
2023-03-20T11:11:40.496Z,8.05
2023-03-20T11:14:27.572Z,9.00
2023-03-20T11:17:18.153Z,8.68
2023-03-20T11:20:08.205Z,7.60
2023-03-20T11:23:16.886Z,7.45
2023-03-20T11:26:10.630Z,8.33
2023-03-20T11:31:43.520Z,7.45
2023-03-20T11:34:41.520Z,7.90
2023-03-20T11:37:34.982Z,9.00
2023-03-20T11:40:28.220Z,8.02
2023-03-20T11:43:16.945Z,8.50
2023-03-20T11:46:00.268Z,9.30
2023-03-20T11:48:43.392Z,9.18
2023-03-20T11:51:21.939Z,10.02
2023-03-20T11:54:06.376Z,9.98
2023-03-20T11:56:47.973Z,9.02
2023-03-20T11:59:27.661Z,10.15
2023-03-20T12:02:14.015Z,8.40
2023-03-20T12:04:51.623Z,8.05
2023-03-20T12:07:34.972Z,8.00
2023-03-20T12:10:24.797Z,6.85
2023-03-20T12:13:16.470Z,8.65
2023-03-20T12:16:06.253Z,9.30
2023-03-20T12:18:54.998Z,9.47
2023-03-20T12:24:42.386Z,10.57
2023-03-20T12:27:42.936Z,11.15
2023-03-20T12:30:24.514Z,12.52
2023-03-20T12:33:09.962Z,14.68
2023-03-20T12:35:57.095Z,14.63
2023-03-20T12:38:59.738Z,15.75
2023-03-20T12:42:22.228Z,14.48
2023-03-20T12:45:08.275Z,14.70
2023-03-20T12:47:53.271Z,15.13
2023-03-20T12:50:45.296Z,15.40
2023-03-20T12:53:47.184Z,15.00
2023-03-20T12:56:24.082Z,14.05
2023-03-20T12:59:17.980Z,13.65
2023-03-20T13:05:04.668Z,9.97
2023-03-20T13:08:07.582Z,8.68
2023-03-20T13:10:44.449Z,8.32
2023-03-20T13:13:25.754Z,9.77
2023-03-20T13:16:21.010Z,6.97
2023-03-20T13:22:12.424Z,7.22
2023-03-20T13:24:55.177Z,6.50
2023-03-20T13:28:10.576Z,8.10
2023-03-20T13:30:54.439Z,7.83
2023-03-20T13:33:41.081Z,9.40
2023-03-20T13:36:15.013Z,9.75
2023-03-20T13:38:54.010Z,9.65
2023-03-20T13:41:44.404Z,10.73
2023-03-20T13:44:35.765Z,8.45
2023-03-20T13:50:47.806Z,8.50
2023-03-20T13:53:34.750Z,7.82
2023-03-20T13:59:47.878Z,8.13
2023-03-20T14:02:44.175Z,6.75
2023-03-20T14:05:29.408Z,6.75
2023-03-20T14:08:30.740Z,7.45
2023-03-20T14:11:21.494Z,8.70
2023-03-20T14:14:01.803Z,7.50
2023-03-20T14:16:38.620Z,7.40
2023-03-20T14:19:24.474Z,8.55
2023-03-20T14:22:04.785Z,7.07
2023-03-20T14:24:44.027Z,8.93
2023-03-20T14:30:36.680Z,9.02
2023-03-20T14:33:32.632Z,14.23
2023-03-20T14:36:21.232Z,13.20
2023-03-20T14:39:23.793Z,12.10
2023-03-20T14:42:10.723Z,11.10
2023-03-20T14:45:02.847Z,8.13
2023-03-20T14:48:03.449Z,7.03
2023-03-20T14:54:57.518Z,6.95
2023-03-20T15:07:10.574Z,4.38
2023-03-20T15:10:01.265Z,3.45
2023-03-20T15:12:59.388Z,2.75
2023-03-20T15:15:39.684Z,2.80
2023-03-20T15:18:48.851Z,3.88
2023-03-20T15:21:41.330Z,3.42
2023-03-20T15:24:38.048Z,3.38
2023-03-20T15:27:20.610Z,4.30
2023-03-20T15:30:13.015Z,3.50
2023-03-20T15:32:51.896Z,2.17
2023-03-20T15:35:43.369Z,1.77
2023-03-20T15:38:21.871Z,2.50
2023-03-20T15:41:05.107Z,2.00
2023-03-20T15:43:55.565Z,2.25
2023-03-20T15:46:36.075Z,2.47
2023-03-20T15:49:35.046Z,2.50
2023-03-20T15:55:29.183Z,2.95
2023-03-20T15:58:21.671Z,3.80
2023-03-20T16:01:13.009Z,2.88
2023-03-20T16:04:07.227Z,3.00
2023-03-20T16:06:54.351Z,2.75
2023-03-20T16:09:37.514Z,3.33
2023-03-20T16:12:16.591Z,3.50
2023-03-20T16:15:02.419Z,3.13
2023-03-20T16:17:43.914Z,3.53
2023-03-20T16:20:19.132Z,3.75
2023-03-20T16:23:02.519Z,3.83
2023-03-20T16:25:49.912Z,3.20
2023-03-20T16:28:28.418Z,3.10
2023-03-20T16:31:14.263Z,3.40
2023-03-20T16:33:57.864Z,3.45
2023-03-20T16:36:37.145Z,3.22
2023-03-20T16:39:24.052Z,4.00
2023-03-20T16:42:23.976Z,4.05
2023-03-20T16:45:04.363Z,4.20
2023-03-20T16:47:48.828Z,4.20
2023-03-20T16:50:38.727Z,4.25
2023-03-20T16:53:25.571Z,5.07
2023-03-20T16:56:45.385Z,5.93
2023-03-20T16:59:31.605Z,5.75
2023-03-20T17:02:15.905Z,5.90
2023-03-20T17:05:00.541Z,6.43
2023-03-20T17:07:54.472Z,6.72
2023-03-20T17:13:25.826Z,6.20
2023-03-20T17:16:10.187Z,6.80
2023-03-20T17:19:13.643Z,7.00
2023-03-20T17:22:00.082Z,6.40
2023-03-20T17:24:56.452Z,5.00
2023-03-20T17:27:40.143Z,6.88
2023-03-20T17:30:22.574Z,7.25
2023-03-20T17:33:47.806Z,7.33
2023-03-20T17:36:31.031Z,7.07
2023-03-20T17:39:12.548Z,7.70
2023-03-20T17:42:15.728Z,7.70
2023-03-20T17:47:54.336Z,8.23
2023-03-20T17:50:37.174Z,8.63
2023-03-20T17:53:22.205Z,9.32
2023-03-20T17:56:08.254Z,9.40
2023-03-20T17:58:58.046Z,9.68
2023-03-20T18:01:39.849Z,10.35
2023-03-20T18:04:20.389Z,11.30
2023-03-20T18:07:02.197Z,12.13
2023-03-20T18:09:49.290Z,13.15
2023-03-20T18:12:26.865Z,12.05
2023-03-20T18:15:02.833Z,11.77
2023-03-20T18:17:37.731Z,12.07
2023-03-20T18:20:20.296Z,11.43
2023-03-20T18:22:59.881Z,12.45
2023-03-20T18:25:36.898Z,11.57
2023-03-20T18:28:19.624Z,11.83
2023-03-20T18:30:54.850Z,11.18
2023-03-20T18:33:30.783Z,11.98
2023-03-20T18:38:48.415Z,10.85
2023-03-20T18:41:23.786Z,11.95
2023-03-20T18:43:59.530Z,13.83
2023-03-20T18:46:37.621Z,13.20
2023-03-20T18:49:19.923Z,13.90
2023-03-20T18:51:55.899Z,16.00
2023-03-20T18:57:16.252Z,15.65
2023-03-20T18:59:53.948Z,17.23
2023-03-20T19:02:31.552Z,18.25
2023-03-20T19:05:09.664Z,17.43
2023-03-20T19:07:48.375Z,17.17
2023-03-20T19:10:39.186Z,17.35
2023-03-20T19:13:23.597Z,15.80
2023-03-20T19:16:13.258Z,19.20
2023-03-20T19:18:53.571Z,21.45
2023-03-20T19:21:35.745Z,17.05
2023-03-20T19:24:16.997Z,15.20
2023-03-20T19:27:01.766Z,14.43
2023-03-20T19:29:46.840Z,15.25
2023-03-20T19:32:24.385Z,14.77
2023-03-20T19:38:09.310Z,14.27
2023-03-20T19:40:49.700Z,13.45
2023-03-20T19:43:42.538Z,15.30
2023-03-20T19:46:42.501Z,14.02
2023-03-20T19:49:30.697Z,12.82
2023-03-20T19:52:13.993Z,14.13
2023-03-20T19:55:02.076Z,13.73
2023-03-20T19:57:48.207Z,16.10
2023-03-20T20:00:56.935Z,13.50
2023-03-20T20:03:39.571Z,13.37
2023-03-20T20:06:22.345Z,14.38
2023-03-20T20:09:11.117Z,14.38
2023-03-20T20:12:01.983Z,13.85
2023-03-20T20:14:47.543Z,14.00
2023-03-20T20:17:37.527Z,14.40
2023-03-20T20:20:25.239Z,14.23
2023-03-20T20:23:06.367Z,13.23
2023-03-20T20:25:50.912Z,13.32
2023-03-20T20:28:30.166Z,14.85
2023-03-20T20:31:09.738Z,15.00
2023-03-20T20:35:14.321Z,14.18
2023-03-20T20:39:54.917Z,15.00
2023-03-20T20:42:40.857Z,15.50
2023-03-20T20:45:18.971Z,15.95
2023-03-20T20:48:00.468Z,15.48
2023-03-20T20:50:43.913Z,16.23
2023-03-20T20:53:21.509Z,18.63
2023-03-20T20:56:06.019Z,18.20
2023-03-20T20:58:52.458Z,16.40
2023-03-20T21:01:34.114Z,15.70
2023-03-20T21:04:26.735Z,17.35
2023-03-20T21:07:21.104Z,18.42
2023-03-20T21:10:08.892Z,17.83
2023-03-20T21:12:59.216Z,18.02
2023-03-20T21:15:45.950Z,16.65
2023-03-20T21:18:31.828Z,20.70
2023-03-20T21:24:03.739Z,21.33
2023-03-20T21:26:46.367Z,20.25
2023-03-20T21:29:31.125Z,21.83
2023-03-20T21:32:10.408Z,18.53
2023-03-20T21:34:54.520Z,17.08
2023-03-20T21:38:29.945Z,19.80
2023-03-20T21:40:32.895Z,20.20
2023-03-20T21:43:10.270Z,20.08
2023-03-20T21:46:30.896Z,19.88
2023-03-20T21:49:41.226Z,22.10
2023-03-20T21:58:50.984Z,24.10
2023-03-20T22:07:44.968Z,21.60
2023-03-20T22:23:00.371Z,23.40
2023-03-20T22:46:55.368Z,22.58
2023-03-20T22:49:23.162Z,21.83
2023-03-20T22:52:19.553Z,23.20
2023-03-20T22:55:02.189Z,23.15
2023-03-20T22:57:55.760Z,23.67
2023-03-20T23:00:39.457Z,21.40
2023-03-20T23:03:33.465Z,19.42
2023-03-20T23:06:20.241Z,20.20
2023-03-20T23:09:12.832Z,20.50
2023-03-20T23:11:52.409Z,21.00
2023-03-20T23:14:30.823Z,21.13
2023-03-20T23:17:11.511Z,20.40
2023-03-20T23:20:08.905Z,21.08
2023-03-20T23:22:50.399Z,23.95
2023-03-20T23:25:39.265Z,25.27
2023-03-20T23:28:17.277Z,22.52
2023-03-20T23:31:09.489Z,22.03
2023-03-20T23:33:50.880Z,24.08
2023-03-20T23:36:36.025Z,19.97
2023-03-20T23:39:15.595Z,23.35
2023-03-20T23:42:12.109Z,23.33
2023-03-20T23:44:58.815Z,22.05
2023-03-20T23:47:45.084Z,24.58
2023-03-20T23:50:31.928Z,23.02
2023-03-20T23:53:20.323Z,25.45
2023-03-20T23:55:56.487Z,26.20
2023-03-20T23:58:37.497Z,23.35
